Impacts METAR Board
IDs:

KMSP - Minneapolis-St Paul, MN, US

Updated at: 1100 UTC 17 Dec 2018
Potential Impact None Slight Moderate High
Time 16/23Z 17/00Z 17/01Z 17/02Z 17/03Z 17/04Z 17/05Z 17/06Z 17/07Z 17/08Z 17/09Z 17/10Z 17/11Z
Temp41 39 36 36 34 34 32 31 30 28 26 28 27
Dewpt23 21 21 21 22 22 22 21 20 20 19 20 19
Altim30.15 30.16 30.17 30.17 30.18 30.18 30.19 30.21 30.22 30.24 30.26 30.27 30.26
VIS10 10 10 10 10 10 10 10 10 10 10 10 10
CIG-- -- -- -- -- -- -- -- -- -- -- 110 --
CoverFEWCLRCLRCLRFEWFEWFEWFEWFEWCLRCLROVCFEW
FltCatVFRVFRVFRVFRVFRVFRVFRVFRVFRVFRVFRVFRVFR
WX--------------------------
WDir280290290310310320320310320310310320340
WSpd9 9 8 9 10 8 8 8 7 5 6 6 4
WGst-- -- -- -- -- -- -- -- -- -- -- -- --
Raw hourly METARs
KMSP 162253Z 28009KT 10SM FEW200 05/M05 A3015 RMK AO2 SLP219 T00501050
KMSP 162353Z 29009KT 10SM CLR 04/M06 A3016 RMK AO2 SLP223 4/003 T00391061 10078 20039 51014
KMSP 170053Z 29008KT 10SM CLR 02/M06 A3017 RMK AO2 SLP226 T00221061
KMSP 170153Z 31009KT 10SM CLR 02/M06 A3017 RMK AO2 SLP227 T00221061
KMSP 170253Z 31010KT 10SM FEW200 01/M06 A3018 RMK AO2 SLP229 T00111056 51004
KMSP 170353Z 32008KT 10SM FEW200 01/M06 A3018 RMK AO2 SLP230 T00111056
KMSP 170453Z 32008KT 10SM FEW200 00/M06 A3019 RMK AO2 SLP232 T00001056
KMSP 170553Z 31008KT 10SM FEW200 M01/M06 A3021 RMK AO2 SLP239 4/003 T10061061 10039 21006 400781006 53010
KMSP 170653Z 32007KT 10SM FEW210 M01/M07 A3022 RMK AO2 SLP244 T10111067
KMSP 170753Z 31005KT 10SM CLR M02/M07 A3024 RMK AO2 SLP249 T10221067
KMSP 170853Z 31006KT 10SM CLR M03/M07 A3026 RMK AO2 SLP257 T10331072 53018
KMSP 170953Z 32006KT 10SM OVC110 M02/M07 A3027 RMK AO2 SLP257 T10221067
KMSP 171053Z 34004KT 10SM FEW110 M03/M07 A3026 RMK AO2 SLP258 T10281072



Page loaded:  11:38 UTC  |   03:38 AM Pacific  |   04:38 AM Mountain  |   05:38 AM Central  |   06:38 AM Eastern

 

ADVISORIES

FORECASTS

FORECASTS

OBSERVATIONS

USER TOOLS

ABOUT US